Time;durP1;ratioP1;P1;durP2;ratioP2;P2;SDS_P1;SDS_P2;PMS_P1;PMS_P2;Temp;Humidity;BMP_temperature;BMP_pressure;BME280_temperature;BME280_humidity;BME280_pressure;Samples;Min_cycle;Max_cycle;Signal;HPM_P1;HPM_P2
2023/06/19 00:01:54;;;;;;;;;10.20;10.00;;;;;23.85;43.78;99193.66;5095561;28;9520;-58
2023/06/19 00:04:22;;;;;;;;;10.40;10.00;;;;;23.82;43.95;99188.69;5096181;28;8948;-56
2023/06/19 00:06:50;;;;;;;;;7.20;6.80;;;;;23.79;44.00;99192.69;5097282;28;8992;-57
2023/06/19 00:09:18;;;;;;;;;11.00;10.00;;;;;23.76;44.07;99206.69;5097853;28;8990;-57
2023/06/19 00:11:46;;;;;;;;;6.60;6.20;;;;;23.72;44.41;99210.09;5097363;28;9493;-58
2023/06/19 00:14:13;;;;;;;;;10.20;9.20;;;;;23.69;44.29;99207.84;5097608;28;8857;-58
2023/06/19 00:16:41;;;;;;;;;12.20;11.00;;;;;23.66;44.35;99202.84;5097412;28;8855;-58
2023/06/19 00:19:10;;;;;;;;;10.60;9.60;;;;;23.62;44.45;99194.31;5097049;28;8863;-58
2023/06/19 00:21:38;;;;;;;;;9.00;9.00;;;;;23.59;44.39;99191.22;5097275;28;8899;-57
2023/06/19 00:24:06;;;;;;;;;9.00;8.20;;;;;23.56;44.54;99199.78;5096283;28;8873;-57
2023/06/19 00:26:33;;;;;;;;;9.60;9.00;;;;;23.54;44.94;99191.03;5097212;28;8838;-56
2023/06/19 00:29:02;;;;;;;;;8.60;8.20;;;;;23.52;44.44;99195.88;5096386;28;8984;-57
2023/06/19 00:31:31;;;;;;;;;8.00;7.80;;;;;23.50;44.44;99193.38;5098069;28;8846;-56
2023/06/19 00:33:59;;;;;;;;;9.00;9.00;;;;;23.49;44.37;99201.72;5097121;28;8834;-56
2023/06/19 00:36:27;;;;;;;;;9.60;9.00;;;;;23.49;44.81;99201.72;5096739;28;8960;-57
2023/06/19 00:38:54;;;;;;;;;9.00;8.40;;;;;23.51;44.50;99199.66;5096925;28;8835;-57
2023/06/19 00:41:22;;;;;;;;;9.20;8.20;;;;;23.48;44.47;99194.63;5095841;28;8827;-57
2023/06/19 00:43:52;;;;;;;;;9.20;9.20;;;;;23.45;44.82;99197.81;5096920;28;8843;-58
2023/06/19 00:46:19;;;;;;;;;8.00;8.00;;;;;23.39;45.03;99195.97;5097225;28;8947;-57
2023/06/19 00:48:47;;;;;;;;;10.00;9.00;;;;;23.34;45.10;99201.22;5096544;28;8838;-56
2023/06/19 00:51:15;;;;;;;;;7.80;6.20;;;;;23.27;44.77;99203.16;5095325;28;8853;-58
2023/06/19 00:53:43;;;;;;;;;8.00;8.00;;;;;23.20;45.38;99205.94;5095651;28;8830;-57
2023/06/19 00:56:11;;;;;;;;;8.80;8.40;;;;;23.15;45.28;99211.19;5110295;28;8842;-58
2023/06/19 00:58:39;;;;;;;;;10.20;8.80;;;;;23.07;45.72;99211.44;5116073;28;8861;-58
2023/06/19 01:01:06;;;;;;;;;9.60;9.00;;;;;23.03;45.20;99209.38;5115995;28;8846;-58
2023/06/19 01:12:59;;;;;;;;;6.00;5.80;;;;;22.75;45.71;99206.19;5117283;27;9481;-57
2023/06/19 01:15:27;;;;;;;;;9.00;9.00;;;;;22.70;46.08;99203.31;5116099;28;8838;-58
2023/06/19 01:17:55;;;;;;;;;9.00;8.80;;;;;22.67;46.07;99206.44;5116645;28;8838;-59
2023/06/19 01:20:22;;;;;;;;;8.00;7.60;;;;;22.66;46.09;99204.78;5114807;28;9614;-58
2023/06/19 01:22:51;;;;;;;;;10.20;8.40;;;;;22.62;46.22;99201.66;5116770;28;8862;-58
2023/06/19 01:25:18;;;;;;;;;5.40;5.00;;;;;22.61;46.39;99199.19;5115666;28;8847;-59
2023/06/19 01:27:47;;;;;;;;;8.00;8.00;;;;;22.58;46.05;99205.88;5115856;28;8831;-58
2023/06/19 01:30:14;;;;;;;;;10.20;9.40;;;;;22.54;46.21;99201.91;5115449;28;8861;-57
2023/06/19 01:32:42;;;;;;;;;9.00;8.20;;;;;22.52;46.42;99197.75;5116533;28;8834;-57
2023/06/19 01:35:10;;;;;;;;;9.40;8.20;;;;;22.51;46.29;99198.81;5116372;28;8826;-58
2023/06/19 01:37:37;;;;;;;;;8.40;8.00;;;;;22.50;46.39;99195.28;5115214;28;8865;-57
2023/06/19 01:40:06;;;;;;;;;13.00;11.80;;;;;22.49;46.11;99200.91;5116323;28;8834;-58
2023/06/19 01:42:34;;;;;;;;;6.80;6.00;;;;;22.49;46.46;99201.75;5116436;28;8835;-58
2023/06/19 01:45:03;;;;;;;;;9.80;9.00;;;;;22.50;46.30;99206.13;5115582;28;8864;-57
2023/06/19 01:47:30;;;;;;;;;11.00;9.40;;;;;22.53;46.46;99199.44;5114760;28;8942;-58
2023/06/19 01:49:58;;;;;;;;;9.60;8.00;;;;;22.55;46.72;99202.78;5116417;28;8868;-58
2023/06/19 01:52:26;;;;;;;;;9.60;9.60;;;;;22.56;46.50;99199.00;5116193;28;8853;-58
2023/06/19 01:54:53;;;;;;;;;9.80;9.00;;;;;22.55;46.71;99200.88;5111426;28;9517;-58
2023/06/19 01:57:21;;;;;;;;;9.40;8.60;;;;;22.55;46.29;99209.00;5095594;28;8858;-56
2023/06/19 01:59:48;;;;;;;;;9.80;7.20;;;;;22.54;46.60;99195.69;5095685;28;8861;-58
2023/06/19 02:02:18;;;;;;;;;7.00;6.40;;;;;22.53;46.70;99194.03;5096062;28;9555;-58
2023/06/19 02:04:45;;;;;;;;;11.80;11.00;;;;;22.52;46.63;99186.91;5095927;28;8851;-59
2023/06/19 02:07:13;;;;;;;;;8.00;7.60;;;;;22.50;46.82;99187.13;5096293;28;9497;-58
2023/06/19 02:09:41;;;;;;;;;11.20;10.20;;;;;22.50;46.87;99191.72;5095758;28;8875;-59
2023/06/19 02:12:08;;;;;;;;;9.00;9.00;;;;;22.49;46.66;99184.63;5095799;28;8857;-58
2023/06/19 02:14:36;;;;;;;;;13.00;12.00;;;;;22.48;46.72;99185.69;5096025;28;8835;-57
2023/06/19 02:17:04;;;;;;;;;13.00;13.00;;;;;22.49;46.63;99181.91;5095112;28;8848;-58
2023/06/19 02:19:32;;;;;;;;;9.80;9.80;;;;;22.50;46.96;99192.56;5100527;28;9548;-58
2023/06/19 02:21:59;;;;;;;;;9.60;9.60;;;;;22.50;46.50;99195.28;5099314;28;8841;-58
2023/06/19 02:24:27;;;;;;;;;12.00;10.80;;;;;22.50;46.59;99194.44;5099498;28;8855;-58
2023/06/19 02:26:54;;;;;;;;;11.40;10.20;;;;;22.48;46.54;99199.25;5100392;28;9529;-58
2023/06/19 02:29:22;;;;;;;;;10.40;10.20;;;;;22.46;46.75;99187.78;5100102;28;8857;-58
2023/06/19 02:31:50;;;;;;;;;10.40;10.40;;;;;22.47;46.85;99197.59;5100041;28;8842;-58
2023/06/19 02:34:18;;;;;;;;;13.00;12.60;;;;;22.47;46.98;99203.03;5099570;28;8846;-58
2023/06/19 02:36:47;;;;;;;;;11.00;11.00;;;;;22.49;46.58;99192.78;5098625;28;8814;-59
2023/06/19 02:39:15;;;;;;;;;13.00;11.20;;;;;22.53;47.14;99194.03;5099579;28;8915;-58
2023/06/19 02:41:45;;;;;;;;;7.60;7.60;;;;;22.56;47.10;99193.56;5099317;28;8834;-57
2023/06/19 02:44:13;;;;;;;;;14.40;12.80;;;;;22.59;46.25;99198.56;5099929;28;8822;-58
2023/06/19 02:46:41;;;;;;;;;12.60;12.60;;;;;22.62;46.39;99204.38;5098119;28;8829;-59
2023/06/19 02:49:09;;;;;;;;;14.60;13.60;;;;;22.65;46.92;99205.84;5099271;28;8845;-59
2023/06/19 02:51:37;;;;;;;;;13.00;13.00;;;;;22.69;46.31;99204.38;5097797;28;8874;-59
2023/06/19 02:54:08;;;;;;;;;14.20;12.60;;;;;22.75;46.21;99211.63;5102893;28;8858;-58
2023/06/19 02:56:36;;;;;;;;;16.20;12.60;;;;;22.80;46.42;99217.25;5119405;28;8856;-59
2023/06/19 02:59:03;;;;;;;;;14.40;14.40;;;;;22.86;46.51;99219.09;5107095;28;8816;-58
2023/06/19 03:01:31;;;;;;;;;15.60;13.80;;;;;22.93;46.34;99228.03;5099168;28;9555;-59
2023/06/19 03:03:59;;;;;;;;;8.60;7.80;;;;;22.98;45.93;99228.22;5098686;28;8849;-57
2023/06/19 03:06:27;;;;;;;;;13.80;11.20;;;;;23.02;45.87;99243.88;5099495;28;8814;-58
2023/06/19 03:08:55;;;;;;;;;15.80;13.60;;;;;23.05;45.78;99248.84;5098866;28;8858;-59
2023/06/19 03:11:23;;;;;;;;;14.60;13.60;;;;;23.06;46.34;99249.72;5112244;28;8819;-59
2023/06/19 03:13:50;;;;;;;;;14.60;14.60;;;;;23.06;46.21;99247.00;5119475;28;8839;-59
2023/06/19 03:16:18;;;;;;;;;15.20;15.20;;;;;23.11;46.16;99255.28;5119271;28;8823;-59
2023/06/19 03:18:46;;;;;;;;;14.40;12.60;;;;;23.17;45.56;99259.91;5119732;28;9473;-59
2023/06/19 03:21:19;;;;;;;;;10.60;9.20;;;;;23.24;45.83;99258.81;5100252;28;8829;-57
2023/06/19 03:23:47;;;;;;;;;14.00;13.00;;;;;23.30;45.82;99262.53;5098022;28;8881;-58
2023/06/19 03:26:15;;;;;;;;;17.00;13.80;;;;;23.35;46.13;99259.97;5098085;28;8813;-58
2023/06/19 03:28:44;;;;;;;;;15.40;13.60;;;;;23.41;46.35;99264.53;5097848;28;8869;-58
2023/06/19 03:31:12;;;;;;;;;14.20;13.00;;;;;23.43;45.87;99263.25;5097337;28;8850;-59
2023/06/19 03:33:40;;;;;;;;;14.00;13.20;;;;;23.45;46.20;99279.38;5097565;28;8860;-59
2023/06/19 03:36:08;;;;;;;;;12.60;12.20;;;;;23.46;46.32;99281.84;5097498;28;8845;-59
2023/06/19 03:38:36;;;;;;;;;13.40;13.00;;;;;23.47;45.88;99278.09;5098288;28;8813;-57
2023/06/19 03:41:04;;;;;;;;;9.60;9.20;;;;;23.51;46.72;99283.94;5097697;28;8839;-59
2023/06/19 03:43:32;;;;;;;;;11.80;10.00;;;;;23.54;45.89;99275.31;5097762;28;8984;-58
2023/06/19 03:45:59;;;;;;;;;13.00;11.80;;;;;23.57;46.48;99292.03;5097171;28;8837;-59
2023/06/19 03:48:27;;;;;;;;;9.00;9.00;;;;;23.59;46.06;99289.09;5097547;28;8933;-59
2023/06/19 03:50:55;;;;;;;;;12.40;10.00;;;;;23.57;46.00;99297.47;5077789;28;8832;-59
2023/06/19 03:53:23;;;;;;;;;9.00;8.40;;;;;23.56;45.99;99298.50;5082061;28;8857;-59
2023/06/19 03:55:51;;;;;;;;;9.80;9.80;;;;;23.51;46.38;99290.19;5076449;28;8974;-58
2023/06/19 03:58:22;;;;;;;;;9.00;9.00;;;;;23.47;46.81;99301.72;5081210;28;8837;-57
2023/06/19 04:00:50;;;;;;;;;8.60;8.20;;;;;23.43;46.36;99311.38;5096247;28;8821;-56
2023/06/19 04:03:18;;;;;;;;;2.00;1.60;;;;;23.38;46.52;99292.16;5096174;28;8845;-57
2023/06/19 04:05:46;;;;;;;;;9.20;8.80;;;;;23.35;47.06;99304.31;5096057;28;8830;-58
2023/06/19 04:08:14;;;;;;;;;8.20;8.20;;;;;23.33;47.27;99311.00;5095749;28;8822;-57
2023/06/19 04:10:41;;;;;;;;;7.80;7.80;;;;;23.30;47.32;99303.31;5096491;28;8860;-59
2023/06/19 04:13:09;;;;;;;;;7.40;5.80;;;;;23.26;47.16;99304.78;5097016;28;8843;-59
2023/06/19 04:15:37;;;;;;;;;7.40;6.00;;;;;23.22;47.15;99312.53;5096846;28;8840;-58
2023/06/19 04:18:05;;;;;;;;;5.00;5.00;;;;;23.19;47.24;99315.69;5096563;28;8821;-59
2023/06/19 04:20:33;;;;;;;;;10.00;10.00;;;;;23.20;47.31;99333.66;5096682;28;8809;-58
2023/06/19 04:23:01;;;;;;;;;8.80;8.00;;;;;23.18;46.99;99334.94;5096432;28;8948;-58
2023/06/19 04:25:29;;;;;;;;;7.60;6.00;;;;;23.16;47.26;99334.31;5097052;28;8855;-57
2023/06/19 04:27:56;;;;;;;;;5.00;5.00;;;;;23.12;47.29;99349.34;5096833;28;8845;-58
2023/06/19 04:30:24;;;;;;;;;6.80;6.00;;;;;23.07;47.63;99344.56;5096730;28;8814;-57
2023/06/19 04:32:52;;;;;;;;;8.80;8.80;;;;;23.03;47.67;99345.19;5096849;28;8836;-57
2023/06/19 04:35:23;;;;;;;;;6.00;5.00;;;;;22.98;47.93;99351.28;5095795;28;8821;-59
2023/06/19 04:37:51;;;;;;;;;5.80;5.80;;;;;22.93;47.96;99359.25;5096213;28;8887;-58
2023/06/19 04:40:18;;;;;;;;;7.20;5.80;;;;;22.88;48.48;99364.50;5096124;28;8898;-59
2023/06/19 04:42:46;;;;;;;;;5.00;4.40;;;;;22.83;48.62;99369.72;5095864;28;8829;-58
2023/06/19 04:45:14;;;;;;;;;4.40;4.00;;;;;22.78;48.33;99372.25;5096499;28;8849;-58
2023/06/19 04:47:43;;;;;;;;;4.80;3.20;;;;;22.73;48.51;99387.50;5096738;28;8849;-58
2023/06/19 04:50:19;;;;;;;;;5.00;5.00;;;;;22.66;49.06;99392.13;5096167;28;8833;-58
2023/06/19 04:52:50;;;;;;;;;6.80;6.00;;;;;22.61;49.33;99386.50;5096306;28;8949;-56
2023/06/19 04:55:18;;;;;;;;;4.60;4.00;;;;;22.57;49.00;99390.69;5095655;28;9503;-56
2023/06/19 04:57:46;;;;;;;;;5.80;5.80;;;;;22.52;49.79;99399.47;5095481;28;9530;-58
2023/06/19 05:00:14;;;;;;;;;4.40;4.20;;;;;22.49;49.83;99397.19;5074963;28;8839;-56
2023/06/19 05:02:45;;;;;;;;;7.20;7.20;;;;;22.46;49.62;99400.31;5075168;28;8867;-57
2023/06/19 05:05:13;;;;;;;;;8.00;7.00;;;;;22.45;50.54;99403.22;5075693;28;9589;-58
2023/06/19 05:07:41;;;;;;;;;7.20;6.80;;;;;22.43;50.07;99408.03;5092690;28;8832;-58
2023/06/19 05:10:09;;;;;;;;;4.60;4.60;;;;;22.42;50.46;99414.50;5095392;28;8841;-58
2023/06/19 05:12:36;;;;;;;;;6.00;5.60;;;;;22.43;50.23;99410.75;5095381;28;8958;-58
2023/06/19 05:15:04;;;;;;;;;4.00;2.80;;;;;22.42;50.87;99415.34;5094406;28;8826;-57
2023/06/19 05:17:34;;;;;;;;;5.00;5.00;;;;;22.43;50.67;99406.16;5095052;28;8856;-58
2023/06/19 05:20:03;;;;;;;;;6.40;6.20;;;;;22.47;50.70;99414.72;5095593;28;8821;-58
2023/06/19 05:22:32;;;;;;;;;4.00;4.00;;;;;22.48;50.77;99405.53;5095092;28;8871;-59
2023/06/19 05:24:59;;;;;;;;;5.80;4.80;;;;;22.50;51.04;99414.28;5094344;28;9028;-57
2023/06/19 05:27:27;;;;;;;;;5.00;4.40;;;;;22.50;51.36;99419.72;5095065;28;8836;-57
2023/06/19 05:29:55;;;;;;;;;5.00;5.00;;;;;22.53;51.52;99416.59;5094500;28;8837;-58
2023/06/19 05:32:23;;;;;;;;;5.20;5.00;;;;;22.55;51.59;99414.50;5095020;28;8963;-57
2023/06/19 05:34:51;;;;;;;;;3.60;3.60;;;;;22.56;51.45;99416.16;5094447;28;8842;-57
2023/06/19 05:37:18;;;;;;;;;4.00;4.00;;;;;22.61;51.37;99413.66;5094600;28;9554;-58
2023/06/19 05:39:46;;;;;;;;;4.20;4.20;;;;;22.64;51.17;99414.09;5095130;28;8959;-57
2023/06/19 05:42:14;;;;;;;;;4.80;4.20;;;;;22.66;51.77;99414.69;5094448;28;8880;-57
2023/06/19 05:44:42;;;;;;;;;5.80;5.40;;;;;22.71;51.32;99424.91;5095228;28;8863;-59
2023/06/19 05:47:11;;;;;;;;;6.00;5.20;;;;;22.81;51.15;99442.44;5094238;28;8879;-59
2023/06/19 05:49:40;;;;;;;;;5.00;5.00;;;;;22.97;50.59;99432.97;5093927;28;8971;-59
2023/06/19 05:52:09;;;;;;;;;3.20;2.80;;;;;23.11;50.34;99424.59;5093956;28;8841;-57
2023/06/19 05:54:37;;;;;;;;;5.20;5.20;;;;;23.20;50.65;99436.91;5092952;28;8861;-58
2023/06/19 05:57:05;;;;;;;;;3.80;3.60;;;;;23.20;50.77;99438.78;5093598;28;8833;-59
2023/06/19 05:59:33;;;;;;;;;4.20;3.20;;;;;23.18;50.60;99440.91;5093824;28;8991;-59
2023/06/19 06:02:03;;;;;;;;;6.00;5.00;;;;;23.16;50.49;99448.44;5093668;28;9523;-59
2023/06/19 06:04:31;;;;;;;;;4.40;4.40;;;;;23.12;50.88;99448.00;5092665;28;8837;-59
2023/06/19 06:06:58;;;;;;;;;2.00;1.80;;;;;23.09;50.88;99456.59;5093129;28;8932;-59
2023/06/19 06:09:27;;;;;;;;;1.40;1.00;;;;;23.08;51.37;99459.50;5092935;28;8844;-58
2023/06/19 06:11:54;;;;;;;;;2.80;2.80;;;;;23.04;51.65;99458.25;5092418;28;8841;-58
2023/06/19 06:14:22;;;;;;;;;4.00;4.00;;;;;22.98;51.86;99464.56;5093158;28;8947;-58
2023/06/19 06:16:50;;;;;;;;;3.40;3.20;;;;;22.89;51.86;99471.25;5092507;28;9004;-59
2023/06/19 06:19:18;;;;;;;;;2.40;2.00;;;;;22.82;51.85;99465.00;5092542;28;8884;-59
2023/06/19 06:21:46;;;;;;;;;1.00;1.00;;;;;22.80;52.19;99472.53;5091891;28;8856;-59
2023/06/19 06:24:14;;;;;;;;;4.00;4.00;;;;;22.80;52.18;99475.22;5092623;28;9007;-59
2023/06/19 06:26:42;;;;;;;;;4.00;4.00;;;;;22.77;52.02;99470.25;5091243;28;8873;-58
2023/06/19 06:29:10;;;;;;;;;3.20;3.20;;;;;22.74;52.72;99485.06;5091239;28;8950;-59
2023/06/19 06:31:38;;;;;;;;;3.20;3.20;;;;;22.72;52.67;99480.88;5092738;28;8845;-59
2023/06/19 06:34:06;;;;;;;;;3.20;3.20;;;;;22.72;52.20;99487.16;5092651;28;8841;-59
2023/06/19 06:36:34;;;;;;;;;4.00;4.00;;;;;22.73;52.70;99487.97;5092761;28;8845;-59
2023/06/19 06:39:05;;;;;;;;;2.80;2.00;;;;;22.76;52.68;99484.88;5093109;28;8954;-57
2023/06/19 06:41:33;;;;;;;;;4.20;3.20;;;;;22.81;52.16;99487.75;5093357;28;8841;-59
2023/06/19 06:44:04;;;;;;;;;4.40;4.00;;;;;22.82;52.52;99481.28;5093923;28;8955;-58
2023/06/19 06:46:32;;;;;;;;;2.40;2.00;;;;;22.79;52.81;99489.88;5093504;28;8861;-59
2023/06/19 06:49:00;;;;;;;;;2.00;2.00;;;;;22.74;52.62;99490.50;5093336;28;8853;-59
2023/06/19 06:51:28;;;;;;;;;1.40;0.80;;;;;22.71;53.09;99490.09;5093017;28;8849;-58
2023/06/19 06:53:55;;;;;;;;;2.00;2.00;;;;;22.73;52.71;99483.41;5092689;28;8969;-57
2023/06/19 06:56:23;;;;;;;;;1.80;1.80;;;;;22.82;53.08;99492.16;5092309;28;8825;-59
2023/06/19 06:58:51;;;;;;;;;3.20;2.40;;;;;22.84;53.14;99485.47;5092402;28;8853;-56
2023/06/19 07:01:19;;;;;;;;;4.00;2.00;;;;;22.89;52.51;99485.66;5092993;28;8983;-57
2023/06/19 07:03:47;;;;;;;;;2.00;2.00;;;;;22.97;52.62;99490.03;5092002;28;8849;-59
2023/06/19 07:06:15;;;;;;;;;2.00;2.00;;;;;23.07;52.48;99487.72;5095958;28;8849;-57
2023/06/19 07:08:47;;;;;;;;;4.60;4.60;;;;;23.20;52.38;99485.00;5095464;28;8864;-59
2023/06/19 07:11:15;;;;;;;;;3.20;2.00;;;;;23.35;51.98;99478.25;5096832;28;8841;-59
2023/06/19 07:13:43;;;;;;;;;4.80;4.00;;;;;23.50;51.55;99478.84;5095635;28;8837;-59
2023/06/19 07:16:11;;;;;;;;;1.80;1.80;;;;;23.51;51.44;99483.22;5096005;28;8837;-59
2023/06/19 07:18:41;;;;;;;;;5.00;5.00;;;;;23.53;51.68;99491.97;5096947;28;8857;-58
2023/06/19 07:21:09;;;;;;;;;4.00;4.00;;;;;23.55;51.74;99489.06;5096393;28;8860;-59
2023/06/19 07:23:37;;;;;;;;;4.80;4.80;;;;;23.57;52.15;99497.81;5096592;28;8845;-59
2023/06/19 07:26:05;;;;;;;;;4.20;4.20;;;;;23.63;51.67;99488.81;5096843;28;8833;-59
2023/06/19 07:28:33;;;;;;;;;2.60;2.00;;;;;23.84;51.36;99494.78;5095787;28;8853;-59
2023/06/19 07:31:01;;;;;;;;;3.80;3.80;;;;;24.03;51.07;99498.44;5096340;28;8848;-59
2023/06/19 07:33:29;;;;;;;;;4.00;4.00;;;;;24.16;50.48;99504.66;5094487;28;8934;-58
2023/06/19 07:35:57;;;;;;;;;4.00;4.00;;;;;24.21;50.71;99496.66;5094628;28;8942;-59
2023/06/19 07:38:25;;;;;;;;;5.60;4.80;;;;;24.22;50.76;99494.78;5094681;28;8869;-59
2023/06/19 07:40:53;;;;;;;;;3.20;3.20;;;;;24.17;50.61;99500.88;5094069;28;8837;-59
2023/06/19 07:43:26;;;;;;;;;3.20;3.20;;;;;24.15;50.96;99503.00;5095379;28;8845;-60
2023/06/19 07:45:54;;;;;;;;;2.40;2.40;;;;;24.17;50.67;99503.59;5094944;28;8881;-59
2023/06/19 07:48:23;;;;;;;;;5.40;3.00;;;;;24.12;51.43;99508.03;5093692;28;8856;-59
2023/06/19 07:50:51;;;;;;;;;2.20;2.00;;;;;24.08;51.33;99512.25;5095009;28;8933;-57
2023/06/19 07:53:19;;;;;;;;;2.60;2.00;;;;;24.22;50.79;99511.13;5095576;28;8938;-59
2023/06/19 07:55:47;;;;;;;;;2.00;2.00;;;;;24.47;50.59;99514.69;5095920;28;9011;-59
2023/06/19 07:58:15;;;;;;;;;2.00;2.00;;;;;24.67;49.91;99505.38;5096402;28;9585;-57
2023/06/19 08:00:43;;;;;;;;;3.20;3.20;;;;;24.77;50.09;99508.41;5096785;28;8979;-59
2023/06/19 08:03:11;;;;;;;;;3.40;3.20;;;;;24.77;49.92;99513.84;5096409;28;9597;-59
2023/06/19 08:05:39;;;;;;;;;2.80;2.00;;;;;24.77;50.07;99510.28;5096204;28;8841;-57
2023/06/19 08:08:07;;;;;;;;;3.00;3.00;;;;;24.78;49.73;99511.94;5096263;28;8888;-57
2023/06/19 08:10:36;;;;;;;;;5.00;5.00;;;;;24.87;49.54;99516.91;5096247;28;8857;-58
2023/06/19 08:13:04;;;;;;;;;2.60;2.00;;;;;24.86;49.38;99514.41;5095775;28;8838;-59
2023/06/19 08:15:32;;;;;;;;;2.00;2.00;;;;;24.79;49.59;99511.72;5095410;28;8841;-57
2023/06/19 08:18:00;;;;;;;;;2.20;2.00;;;;;24.70;50.34;99515.81;5095384;28;8861;-58
2023/06/19 08:20:28;;;;;;;;;3.00;3.00;;;;;24.64;50.39;99518.59;5095844;28;8837;-57
2023/06/19 08:22:57;;;;;;;;;2.40;2.40;;;;;24.55;50.67;99514.41;5095627;28;9525;-58
2023/06/19 08:25:25;;;;;;;;;2.00;2.00;;;;;24.52;50.67;99512.16;5095290;28;8895;-59
2023/06/19 08:27:53;;;;;;;;;2.80;2.20;;;;;24.55;50.39;99515.28;5094561;28;8845;-59
2023/06/19 08:30:21;;;;;;;;;3.00;3.00;;;;;24.65;50.07;99529.25;5094566;28;8875;-59
2023/06/19 08:32:49;;;;;;;;;3.00;3.00;;;;;24.65;50.08;99522.97;5095514;28;8852;-57
2023/06/19 08:35:19;;;;;;;;;2.00;2.00;;;;;24.60;50.46;99533.69;5094886;28;8853;-58
2023/06/19 08:37:47;;;;;;;;;1.40;1.40;;;;;24.54;50.35;99531.81;5095051;28;8837;-59
2023/06/19 08:40:15;;;;;;;;;3.00;3.00;;;;;24.49;50.21;99528.94;5095489;28;8857;-59
2023/06/19 08:42:43;;;;;;;;;4.20;2.80;;;;;24.50;50.28;99525.16;5095248;28;8845;-59
2023/06/19 08:45:11;;;;;;;;;2.00;2.00;;;;;24.51;49.97;99521.38;5095734;28;8860;-58
2023/06/19 08:47:39;;;;;;;;;3.00;2.40;;;;;24.59;50.46;99521.13;5094947;28;8845;-59
2023/06/19 08:50:08;;;;;;;;;3.40;2.60;;;;;24.70;50.29;99523.13;5094708;28;8872;-58
2023/06/19 08:52:36;;;;;;;;;2.00;2.00;;;;;24.78;49.62;99525.56;5095367;28;8928;-58
2023/06/19 08:55:04;;;;;;;;;2.00;2.00;;;;;24.88;49.49;99531.38;5095166;28;8872;-59
2023/06/19 08:57:35;;;;;;;;;2.20;2.00;;;;;24.90;49.56;99532.81;5093862;28;8841;-58
2023/06/19 09:00:05;;;;;;;;;2.60;2.00;;;;;24.94;49.22;99533.22;5094138;28;8861;-59
2023/06/19 09:02:33;;;;;;;;;3.00;3.00;;;;;24.97;49.42;99540.91;5094266;28;8852;-58
2023/06/19 09:05:02;;;;;;;;;4.20;3.00;;;;;25.00;49.27;99545.91;5094286;28;8855;-59
2023/06/19 09:07:30;;;;;;;;;3.00;2.20;;;;;25.13;49.49;99546.66;5094010;28;8861;-59
2023/06/19 09:09:59;;;;;;;;;3.00;3.00;;;;;25.27;48.86;99547.38;5094426;28;8849;-59
2023/06/19 09:12:27;;;;;;;;;3.00;3.00;;;;;25.47;48.89;99542.53;5094568;28;8841;-58
2023/06/19 09:14:55;;;;;;;;;2.60;2.00;;;;;25.76;48.01;99532.53;5093347;28;8841;-59
2023/06/19 09:17:23;;;;;;;;;3.40;3.40;;;;;25.98;48.07;99531.00;5094873;28;8845;-57
2023/06/19 09:19:52;;;;;;;;;2.40;2.40;;;;;26.23;47.30;99534.44;5094496;28;8845;-59
2023/06/19 09:22:20;;;;;;;;;3.00;2.20;;;;;26.48;47.19;99537.00;5093316;28;8965;-59
2023/06/19 09:24:48;;;;;;;;;4.20;3.00;;;;;26.57;46.52;99528.25;5093833;28;8885;-59
2023/06/19 09:27:18;;;;;;;;;4.00;4.00;;;;;26.71;46.47;99537.09;5092210;28;8837;-58
2023/06/19 09:29:46;;;;;;;;;4.80;4.40;;;;;26.74;46.82;99537.44;5093100;28;8841;-59
2023/06/19 09:32:14;;;;;;;;;6.00;6.00;;;;;26.73;46.82;99540.41;5092800;28;8855;-58
2023/06/19 09:34:42;;;;;;;;;3.60;3.60;;;;;26.99;46.05;99540.78;5093848;28;8868;-56
2023/06/19 09:37:10;;;;;;;;;4.20;4.20;;;;;27.17;45.77;99532.50;5092168;28;8857;-58
2023/06/19 09:39:39;;;;;;;;;4.20;4.20;;;;;27.23;45.90;99534.28;5092501;28;8853;-59
2023/06/19 09:42:07;;;;;;;;;4.20;4.20;;;;;27.28;46.17;99545.34;5093401;28;8837;-57
2023/06/19 09:44:35;;;;;;;;;4.20;4.00;;;;;27.26;45.76;99546.66;5094377;28;8854;-59
2023/06/19 09:47:16;;;;;;;;;6.60;4.00;;;;;27.15;46.19;99553.78;5094087;28;8865;-58
2023/06/19 09:49:45;;;;;;;;;4.80;4.80;;;;;27.20;45.91;99559.38;5094140;28;8975;-58
2023/06/19 09:52:13;;;;;;;;;7.00;6.00;;;;;27.25;46.16;99551.28;5094327;28;8845;-58
2023/06/19 09:54:44;;;;;;;;;5.20;5.20;;;;;27.31;46.29;99552.25;5093954;28;8861;-57
2023/06/19 09:57:12;;;;;;;;;6.80;5.20;;;;;27.55;45.33;99553.88;5094310;28;8848;-59
2023/06/19 09:59:40;;;;;;;;;4.80;4.00;;;;;27.79;45.74;99553.63;5093931;28;8864;-57
2023/06/19 10:02:09;;;;;;;;;6.20;6.20;;;;;27.92;44.97;99563.47;5093611;28;8869;-58
2023/06/19 10:04:37;;;;;;;;;6.20;6.20;;;;;28.07;45.40;99550.91;5093096;28;8845;-58
2023/06/19 10:07:05;;;;;;;;;7.00;7.00;;;;;28.24;44.42;99554.56;5092684;28;8853;-56
2023/06/19 10:09:33;;;;;;;;;7.00;6.20;;;;;28.39;44.23;99554.03;5092555;28;8853;-58
2023/06/19 10:12:01;;;;;;;;;7.40;7.40;;;;;28.30;44.30;99566.44;5092238;28;8845;-57
2023/06/19 10:14:29;;;;;;;;;8.20;8.00;;;;;28.28;44.65;99568.56;5093441;28;9045;-57
2023/06/19 10:16:57;;;;;;;;;7.60;6.60;;;;;28.44;44.43;99563.16;5092647;28;8841;-58
2023/06/19 10:19:26;;;;;;;;;6.60;6.60;;;;;28.76;43.73;99558.81;5092999;28;8853;-59
2023/06/19 10:21:53;;;;;;;;;5.80;5.60;;;;;28.88;44.21;99565.06;5092698;28;8863;-59
2023/06/19 10:24:22;;;;;;;;;8.00;7.80;;;;;28.81;43.86;99563.56;5092728;28;8885;-58
2023/06/19 10:26:50;;;;;;;;;7.00;7.00;;;;;28.71;44.78;99564.22;5094366;28;8911;-56
2023/06/19 10:29:18;;;;;;;;;9.60;8.40;;;;;28.81;44.42;99564.38;5094645;28;8947;-57
2023/06/19 10:31:47;;;;;;;;;7.00;7.00;;;;;28.98;43.62;99565.25;5094033;28;9537;-58
2023/06/19 10:34:15;;;;;;;;;9.00;8.40;;;;;29.18;43.45;99559.25;5093303;28;8837;-59
2023/06/19 10:36:43;;;;;;;;;5.40;5.20;;;;;29.23;43.32;99562.91;5093463;28;8945;-57
2023/06/19 10:39:12;;;;;;;;;7.00;7.00;;;;;29.34;43.09;99577.63;5094120;28;8868;-59
2023/06/19 10:41:39;;;;;;;;;7.40;7.00;;;;;29.61;42.85;99562.97;5096935;28;8853;-58
2023/06/19 10:44:12;;;;;;;;;9.00;8.60;;;;;30.02;42.56;99559.63;5097287;28;8887;-59
2023/06/19 10:46:41;;;;;;;;;9.00;8.80;;;;;30.25;41.87;99562.13;5097058;28;8992;-58
2023/06/19 10:49:11;;;;;;;;;6.40;6.20;;;;;30.52;41.54;99550.06;5097147;28;8857;-58
2023/06/19 10:51:39;;;;;;;;;8.60;8.60;;;;;30.75;41.30;99554.44;5096071;28;8837;-59
2023/06/19 10:54:07;;;;;;;;;8.00;6.80;;;;;30.55;41.37;99567.16;5097245;28;8853;-58
2023/06/19 10:56:35;;;;;;;;;8.00;8.00;;;;;30.89;41.13;99558.44;5095767;28;8845;-59
2023/06/19 10:59:04;;;;;;;;;10.00;9.40;;;;;31.24;40.59;99555.97;5096078;28;9792;-58
2023/06/19 11:01:32;;;;;;;;;9.00;8.80;;;;;31.60;39.52;99560.59;5095872;28;8864;-58
2023/06/19 11:04:01;;;;;;;;;9.20;8.60;;;;;31.94;39.92;99539.88;5095003;28;9505;-59
2023/06/19 11:06:29;;;;;;;;;5.80;5.20;;;;;32.30;39.06;99533.38;5093894;28;8947;-58
2023/06/19 11:08:57;;;;;;;;;8.80;8.20;;;;;32.61;38.97;99541.44;5095578;28;8841;-59
2023/06/19 11:11:25;;;;;;;;;10.00;9.60;;;;;32.79;38.46;99538.19;5095510;28;8849;-59
2023/06/19 11:13:53;;;;;;;;;7.40;6.80;;;;;32.97;38.45;99532.13;5095226;28;8857;-57
2023/06/19 11:16:22;;;;;;;;;9.80;9.00;;;;;33.38;37.76;99536.50;5095612;28;8849;-59
2023/06/19 11:18:50;;;;;;;;;7.00;6.60;;;;;33.06;38.28;99540.69;5094998;28;8872;-60
2023/06/19 11:21:18;;;;;;;;;10.80;9.60;;;;;32.36;39.35;99541.41;5095250;28;8837;-59
2023/06/19 11:23:46;;;;;;;;;11.40;9.20;;;;;32.07;39.38;99550.38;5095213;28;8857;-59
2023/06/19 11:26:14;;;;;;;;;11.00;10.00;;;;;31.77;39.44;99545.56;5095222;28;8896;-58
2023/06/19 11:28:43;;;;;;;;;8.80;8.80;;;;;31.67;39.89;99550.19;5095301;28;8860;-57
2023/06/19 11:31:11;;;;;;;;;9.80;9.80;;;;;32.14;38.97;99535.25;5095374;28;8922;-58
2023/06/19 11:33:39;;;;;;;;;12.00;11.20;;;;;32.49;38.13;99537.28;5095701;28;8868;-59
2023/06/19 11:36:07;;;;;;;;;10.60;9.60;;;;;32.52;38.57;99539.50;5095776;28;8833;-59
2023/06/19 11:38:35;;;;;;;;;10.80;9.80;;;;;32.40;38.61;99523.19;5095921;28;8841;-59
2023/06/19 11:41:04;;;;;;;;;10.60;9.80;;;;;32.28;38.40;99532.84;5095439;28;8849;-59
2023/06/19 11:43:31;;;;;;;;;8.00;8.00;;;;;32.74;38.00;99529.06;5094321;28;8861;-59
2023/06/19 11:45:59;;;;;;;;;7.00;7.00;;;;;32.78;37.98;99535.69;5094227;28;8837;-58
2023/06/19 11:48:28;;;;;;;;;8.00;7.40;;;;;32.48;38.44;99524.59;5094573;28;8860;-60
2023/06/19 11:50:56;;;;;;;;;8.80;8.00;;;;;32.01;38.91;99532.19;5094162;28;8849;-59
2023/06/19 11:53:24;;;;;;;;;9.80;9.80;;;;;31.48;40.10;99532.47;5094529;28;8865;-59